Time;durP1;ratioP1;P1;durP2;ratioP2;P2;SDS_P1;SDS_P2;PMS_P1;PMS_P2;Temp;Humidity;BMP_temperature;BMP_pressure;BME280_temperature;BME280_humidity;BME280_pressure;Samples;Min_cycle;Max_cycle;Signal;HPM_P1;HPM_P2
2022/06/24 00:00:13;;;;;;;;;4.60;4.60;;;;;22.95;100.00;100459.66;6223999;22;44723;-87
2022/06/24 00:02:39;;;;;;;;;6.20;5.20;;;;;22.90;100.00;100453.97;6233214;22;44719;-88
2022/06/24 00:05:09;;;;;;;;;4.40;3.60;;;;;22.80;100.00;100455.06;6222930;22;45098;-87
2022/06/24 00:07:48;;;;;;;;;2.20;2.20;;;;;22.76;100.00;100461.03;6216687;22;45228;-88
2022/06/24 00:10:15;;;;;;;;;4.80;4.80;;;;;22.75;100.00;100459.38;6214981;22;44780;-88
2022/06/24 00:12:43;;;;;;;;;4.00;4.00;;;;;22.70;100.00;100457.22;6222552;22;44706;-88
2022/06/24 00:15:09;;;;;;;;;5.40;4.40;;;;;22.69;100.00;100463.69;6223796;22;46887;-86
2022/06/24 00:17:34;;;;;;;;;5.75;4.00;;;;;22.63;100.00;100464.44;6228602;22;44564;-87
2022/06/24 00:20:05;;;;;;;;;4.00;4.00;;;;;22.44;100.00;100441.47;6231388;22;44617;-86
2022/06/24 00:22:39;;;;;;;;;5.00;3.80;;;;;22.47;100.00;100453.78;6226015;22;44677;-87
2022/06/24 00:25:13;;;;;;;;;5.00;5.00;;;;;22.41;100.00;100459.94;6219039;22;45628;-87
2022/06/24 00:27:39;;;;;;;;;4.40;4.40;;;;;22.41;100.00;100462.66;6217245;22;44699;-88
2022/06/24 00:30:14;;;;;;;;;4.20;4.20;;;;;22.36;100.00;100459.69;6218171;22;45238;-86
2022/06/24 00:32:40;;;;;;;;;5.20;5.20;;;;;22.31;100.00;100462.94;6221926;22;45419;-86
2022/06/24 00:35:12;;;;;;;;;4.00;4.00;;;;;22.33;100.00;100461.72;6230505;22;46557;-87
2022/06/24 00:37:39;;;;;;;;;3.00;3.00;;;;;22.27;100.00;100458.91;6231189;22;44582;-87
2022/06/24 00:40:11;;;;;;;;;3.80;3.80;;;;;22.26;100.00;100460.78;6227493;22;44661;-86
2022/06/24 00:42:39;;;;;;;;;4.60;4.60;;;;;22.19;100.00;100456.28;6228035;22;44959;-86
2022/06/24 00:45:15;;;;;;;;;4.00;4.00;;;;;22.29;100.00;100465.00;6225412;22;45092;-88
2022/06/24 00:47:42;;;;;;;;;4.80;4.00;;;;;22.28;100.00;100468.72;6219571;22;44816;-88
2022/06/24 00:50:24;;;;;;;;;2.00;2.00;;;;;22.27;100.00;100467.03;6215961;22;44745;-87
2022/06/24 00:52:59;;;;;;;;;2.20;2.20;;;;;22.24;100.00;100461.97;6219267;22;44680;-87
2022/06/24 00:55:36;;;;;;;;;5.40;4.60;;;;;22.25;100.00;100458.28;6217200;22;45263;-87
2022/06/24 00:58:03;;;;;;;;;4.00;4.00;;;;;22.25;100.00;100461.81;6217418;22;45267;-87
2022/06/24 01:00:30;;;;;;;;;5.00;5.00;;;;;22.23;100.00;100457.59;6216458;22;44590;-87
2022/06/24 01:03:04;;;;;;;;;4.40;4.20;;;;;22.26;100.00;100470.78;6218339;22;44765;-88
2022/06/24 01:05:31;;;;;;;;;3.80;3.00;;;;;22.22;100.00;100462.19;6224981;22;45342;-87
2022/06/24 01:07:58;;;;;;;;;6.40;4.20;;;;;22.27;100.00;100469.75;6225462;22;45155;-87
2022/06/24 01:10:23;;;;;;;;;5.00;5.00;;;;;22.24;100.00;100467.41;6216281;22;44817;-87
2022/06/24 01:12:49;;;;;;;;;5.25;4.25;;;;;22.28;100.00;100472.25;6216887;22;45584;-88
2022/06/24 01:15:15;;;;;;;;;4.00;3.00;;;;;22.28;100.00;100453.31;6217251;22;45370;-88
2022/06/24 01:17:41;;;;;;;;;4.75;4.75;;;;;22.26;100.00;100462.66;6216660;22;44801;-88
2022/06/24 01:20:11;;;;;;;;;5.80;5.80;;;;;22.29;100.00;100455.00;6219863;22;45447;-89
2022/06/24 01:22:37;;;;;;;;;6.40;4.60;;;;;22.27;100.00;100454.34;6225163;22;45404;-88
2022/06/24 01:25:03;;;;;;;;;5.00;5.00;;;;;22.30;100.00;100461.25;6217089;22;45418;-88
2022/06/24 01:27:28;;;;;;;;;4.00;4.00;;;;;22.25;100.00;100456.41;6188856;22;44764;-88
2022/06/24 01:29:54;;;;;;;;;4.00;4.00;;;;;22.27;100.00;100467.03;6212860;22;45355;-86
2022/06/24 01:32:20;;;;;;;;;6.25;5.00;;;;;22.21;100.00;100473.19;6215208;22;44829;-88
2022/06/24 01:34:46;;;;;;;;;2.20;1.00;;;;;22.12;100.00;100479.72;6216445;22;45275;-87
2022/06/24 01:37:12;;;;;;;;;3.25;3.25;;;;;22.04;100.00;100480.59;6244128;22;44741;-89
2022/06/24 01:39:38;;;;;;;;;3.80;3.80;;;;;22.01;100.00;100471.00;6225533;22;44674;-87
2022/06/24 01:42:04;;;;;;;;;4.75;4.00;;;;;21.98;100.00;100481.31;6221236;22;44824;-89
2022/06/24 01:44:30;;;;;;;;;4.60;4.00;;;;;21.96;100.00;100495.03;6228241;22;46471;-90
2022/06/24 01:46:55;;;;;;;;;4.00;4.00;;;;;21.85;100.00;100490.06;6223178;22;45172;-86
2022/06/24 01:49:21;;;;;;;;;3.50;3.50;;;;;21.65;100.00;100495.13;6213131;22;45737;-85
2022/06/24 01:51:49;;;;;;;;;4.50;4.50;;;;;21.32;100.00;100501.75;6213036;22;44750;-85
2022/06/24 01:54:15;;;;;;;;;6.00;5.40;;;;;21.10;100.00;100516.91;6210358;22;46312;-84
2022/06/24 01:56:40;;;;;;;;;7.75;5.00;;;;;20.82;100.00;100519.22;6212807;22;45297;-83
2022/06/24 01:59:05;;;;;;;;;7.00;7.00;;;;;20.59;100.00;100516.41;6212811;22;45246;-84
2022/06/24 02:01:31;;;;;;;;;5.50;5.50;;;;;20.48;100.00;100514.94;6218133;22;44650;-82
2022/06/24 02:03:56;;;;;;;;;5.25;4.50;;;;;20.39;100.00;100497.88;6216183;22;45280;-85
2022/06/24 02:06:22;;;;;;;;;7.25;6.25;;;;;20.32;100.00;100514.94;6212382;22;45228;-84
2022/06/24 02:08:48;;;;;;;;;6.80;5.80;;;;;20.26;100.00;100522.72;6213048;22;45256;-84
2022/06/24 02:14:04;;;;;;;;;5.00;4.00;;;;;20.22;100.00;100521.34;6219000;22;44941;-88
2022/06/24 02:16:30;;;;;;;;;6.00;6.00;;;;;20.21;100.00;100508.03;6212539;22;45238;-88
2022/06/24 02:18:56;;;;;;;;;6.00;5.00;;;;;20.21;100.00;100526.91;6212650;22;45420;-88
2022/06/24 02:21:24;;;;;;;;;8.00;5.40;;;;;20.17;100.00;100509.41;6214078;22;44832;-88
2022/06/24 02:23:50;;;;;;;;;6.20;6.20;;;;;20.20;100.00;100522.53;6212400;22;45260;-84
2022/06/24 02:26:15;;;;;;;;;5.00;5.00;;;;;20.16;100.00;100521.19;6212107;22;44712;-84
2022/06/24 02:28:41;;;;;;;;;6.25;5.00;;;;;20.06;100.00;100526.75;6212266;22;44715;-84
2022/06/24 02:31:07;;;;;;;;;5.75;5.75;;;;;19.84;100.00;100527.44;6212150;22;44820;-84
2022/06/24 02:33:32;;;;;;;;;10.00;5.25;;;;;19.57;100.00;100524.00;6214077;22;45278;-83
2022/06/24 02:35:58;;;;;;;;;4.25;4.25;;;;;19.29;100.00;100515.34;6219891;22;44804;-86
2022/06/24 02:38:24;;;;;;;;;6.50;5.00;;;;;19.12;100.00;100509.09;6217656;22;44675;-86
2022/06/24 02:40:50;;;;;;;;;3.75;3.75;;;;;18.95;100.00;100502.81;6218788;22;45397;-87
2022/06/24 02:43:36;;;;;;;;;4.75;4.75;;;;;18.86;100.00;100502.97;6227259;22;45033;-91
2022/06/24 02:46:16;;;;;;;;;5.80;3.20;;;;;18.82;100.00;100504.28;6174906;23;45500;-90
2022/06/24 02:48:43;;;;;;;;;4.60;4.60;;;;;18.87;100.00;100513.56;6170343;23;44715;-89
2022/06/24 02:51:11;;;;;;;;;5.00;5.00;;;;;18.90;100.00;100507.81;6156217;23;44810;-90
2022/06/24 02:53:37;;;;;;;;;4.60;4.60;;;;;18.94;100.00;100509.19;6159662;23;45253;-88
2022/06/24 02:56:07;;;;;;;;;6.50;6.50;;;;;19.00;100.00;100510.38;6172956;23;44731;-88
2022/06/24 02:58:33;;;;;;;;;7.00;5.20;;;;;19.08;100.00;100506.88;6165102;23;44797;-86
2022/06/24 03:01:00;;;;;;;;;6.25;6.25;;;;;19.11;100.00;100506.56;6151103;23;44871;-86
2022/06/24 03:03:27;;;;;;;;;5.80;5.80;;;;;19.07;100.00;100499.81;6150856;23;45414;-86
2022/06/24 03:05:53;;;;;;;;;7.40;5.40;;;;;19.14;100.00;100509.75;6150746;23;45444;-86
2022/06/24 03:08:20;;;;;;;;;6.50;5.00;;;;;19.16;100.00;100505.06;6150326;23;44810;-87
2022/06/24 03:10:45;;;;;;;;;5.60;5.60;;;;;19.11;100.00;100504.72;6151702;23;45545;-86
2022/06/24 03:13:11;;;;;;;;;7.00;6.50;;;;;19.14;100.00;100499.00;6151970;23;45199;-85
2022/06/24 03:15:38;;;;;;;;;8.40;7.40;;;;;19.15;100.00;100495.31;6152460;23;45344;-86
2022/06/24 03:18:03;;;;;;;;;5.60;5.60;;;;;19.13;100.00;100489.22;6158789;23;44716;-87
2022/06/24 03:20:30;;;;;;;;;5.75;5.00;;;;;19.18;100.00;100483.34;6155592;23;45459;-85
2022/06/24 03:22:56;;;;;;;;;6.20;6.20;;;;;19.15;100.00;100470.22;6181495;22;45481;-86
2022/06/24 03:25:21;;;;;;;;;5.75;5.75;;;;;19.22;100.00;100484.72;6220765;22;44726;-89
2022/06/24 03:27:47;;;;;;;;;5.50;5.50;;;;;19.19;100.00;100476.94;6218421;22;45230;-89
2022/06/24 03:30:12;;;;;;;;;6.00;6.00;;;;;19.21;100.00;100488.41;6229172;22;45438;-88
2022/06/24 03:32:39;;;;;;;;;6.50;6.50;;;;;19.24;100.00;100499.72;6230514;22;45276;-88
2022/06/24 03:35:05;;;;;;;;;8.00;8.00;;;;;19.24;100.00;100497.03;6220084;22;44665;-88
2022/06/24 03:37:32;;;;;;;;;8.40;8.40;;;;;19.20;100.00;100492.13;6215875;22;45318;-90
2022/06/24 03:39:58;;;;;;;;;10.00;7.60;;;;;19.21;100.00;100488.41;6216151;22;44710;-90
2022/06/24 03:42:24;;;;;;;;;6.40;6.40;;;;;19.21;100.00;100491.94;6213793;22;46985;-89
2022/06/24 03:44:49;;;;;;;;;10.50;8.00;;;;;19.18;100.00;100480.66;6212337;22;44796;-86
2022/06/24 03:47:15;;;;;;;;;8.25;7.50;;;;;19.21;100.00;100491.94;6212682;22;45260;-86
2022/06/24 03:49:41;;;;;;;;;7.50;7.50;;;;;19.16;100.00;100483.53;6216992;22;45293;-85
2022/06/24 03:52:07;;;;;;;;;6.75;5.50;;;;;19.19;100.00;100474.25;6220377;22;47631;-86
2022/06/24 03:54:32;;;;;;;;;7.40;7.40;;;;;19.13;100.00;100478.47;6211873;22;45017;-86
2022/06/24 03:56:58;;;;;;;;;8.25;8.25;;;;;19.12;100.00;100479.47;6212950;22;45383;-85
2022/06/24 03:59:23;;;;;;;;;8.00;6.00;;;;;19.13;100.00;100486.53;6212179;22;44770;-84
2022/06/24 04:01:48;;;;;;;;;8.75;8.75;;;;;19.12;100.00;100481.31;6214755;22;45255;-86
2022/06/24 04:04:16;;;;;;;;;9.00;7.00;;;;;19.07;100.00;100478.28;6216935;22;45337;-84
2022/06/24 04:06:41;;;;;;;;;9.60;7.00;;;;;19.09;100.00;100481.63;6222335;22;45353;-85
2022/06/24 04:09:07;;;;;;;;;8.50;8.50;;;;;19.00;100.00;100470.00;6216729;22;44758;-86
2022/06/24 04:11:32;;;;;;;;;12.75;10.75;;;;;19.04;100.00;100481.28;6213271;22;45352;-85
2022/06/24 04:14:01;;;;;;;;;9.00;8.50;;;;;19.03;100.00;100485.84;6213522;22;45404;-89
2022/06/24 04:16:28;;;;;;;;;12.00;9.00;;;;;19.02;100.00;100480.63;6213968;22;45453;-90
2022/06/24 04:18:54;;;;;;;;;7.80;6.80;;;;;19.08;100.00;100488.88;6219160;22;45390;-89
2022/06/24 04:21:20;;;;;;;;;8.80;7.80;;;;;19.09;100.00;100493.25;6221318;22;47139;-89
2022/06/24 04:23:49;;;;;;;;;8.80;7.80;;;;;19.07;100.00;100492.59;6222006;22;45441;-89
2022/06/24 04:26:15;;;;;;;;;8.20;6.40;;;;;19.06;100.00;100496.28;6223912;22;45305;-88
2022/06/24 04:28:40;;;;;;;;;7.80;7.80;;;;;19.10;100.00;100510.25;6224826;22;44797;-90
2022/06/24 04:31:05;;;;;;;;;6.25;6.25;;;;;19.24;100.00;100491.63;6221364;22;45147;-90
2022/06/24 04:33:31;;;;;;;;;8.25;8.25;;;;;19.46;100.00;100484.75;6218857;22;44742;-89
2022/06/24 04:35:56;;;;;;;;;10.00;8.00;;;;;19.67;100.00;100489.69;6220977;22;44619;-90
2022/06/24 04:38:22;;;;;;;;;7.75;7.25;;;;;19.90;100.00;100491.72;6221939;22;44839;-88
2022/06/24 04:40:48;;;;;;;;;6.50;6.50;;;;;20.11;100.00;100494.72;6215647;22;45382;-85
2022/06/24 04:43:13;;;;;;;;;8.75;6.00;;;;;20.26;100.00;100486.78;6216683;22;44574;-86
2022/06/24 04:45:39;;;;;;;;;5.75;5.75;;;;;20.48;100.00;100482.53;6233124;22;44611;-85
2022/06/24 04:48:05;;;;;;;;;5.20;5.00;;;;;20.61;100.00;100480.16;6235497;22;44804;-83
2022/06/24 04:50:32;;;;;;;;;5.80;5.00;;;;;20.60;100.00;100472.19;6233542;22;44931;-83
2022/06/24 04:52:58;;;;;;;;;7.20;5.60;;;;;20.61;100.00;100487.41;6231077;22;44946;-84
2022/06/24 04:55:24;;;;;;;;;3.80;3.80;;;;;20.62;100.00;100475.59;6229977;22;44798;-83
2022/06/24 04:57:49;;;;;;;;;8.25;6.25;;;;;20.76;100.00;100462.19;6255604;22;44873;-83
2022/06/24 05:00:15;;;;;;;;;4.00;4.00;;;;;20.85;100.00;100470.25;6227378;22;45388;-85
2022/06/24 05:02:41;;;;;;;;;6.75;5.00;;;;;20.99;100.00;100472.22;6227708;22;44669;-84
2022/06/24 05:05:08;;;;;;;;;6.00;6.00;;;;;21.12;100.00;100464.34;6216898;22;45345;-85
2022/06/24 05:07:34;;;;;;;;;9.20;6.00;;;;;21.24;100.00;100475.63;6214064;22;44821;-84
2022/06/24 05:09:59;;;;;;;;;7.50;7.50;;;;;21.13;100.00;100471.47;6213889;22;45186;-86
2022/06/24 05:12:24;;;;;;;;;7.25;5.25;;;;;21.15;100.00;100482.09;6214061;22;45145;-86
2022/06/24 05:14:50;;;;;;;;;6.00;5.25;;;;;21.02;100.00;100472.69;6212506;22;45089;-86
2022/06/24 05:17:15;;;;;;;;;8.25;7.75;;;;;20.76;100.00;100467.59;6215841;22;44811;-87
2022/06/24 05:19:41;;;;;;;;;6.75;6.75;;;;;20.58;100.00;100471.53;6218921;22;45153;-86
2022/06/24 05:22:06;;;;;;;;;8.00;8.00;;;;;20.50;100.00;100473.28;6220973;22;44806;-86
2022/06/24 05:24:31;;;;;;;;;8.50;7.25;;;;;20.39;100.00;100467.34;6216309;22;45239;-86
2022/06/24 05:26:58;;;;;;;;;5.25;5.25;;;;;20.59;100.00;100467.81;6224941;22;44762;-92
2022/06/24 05:29:28;;;;;;;;;9.60;6.60;;;;;20.68;100.00;100470.31;6227700;22;45444;-91
2022/06/24 05:32:00;;;;;;;;;5.40;5.40;;;;;20.78;100.00;100467.41;6232741;22;44627;-92
2022/06/24 05:34:56;;;;;;;;;7.80;6.20;;;;;20.71;100.00;100459.19;6231994;22;44790;-92
2022/06/24 05:40:02;;;;;;;;;6.20;6.20;;;;;20.81;100.00;100466.22;6287531;22;45121;-91
2022/06/24 05:45:19;;;;;;;;;8.20;7.40;;;;;20.57;100.00;100472.56;6223374;22;44888;-92
2022/06/24 05:47:53;;;;;;;;;4.40;4.40;;;;;20.37;100.00;100467.53;6244182;22;44833;-93
2022/06/24 05:56:38;;;;;;;;;7.20;7.20;;;;;19.99;100.00;100501.50;6208970;22;44745;-93
2022/06/24 05:59:09;;;;;;;;;10.40;10.00;;;;;19.77;100.00;100467.94;6224581;22;44837;-94
2022/06/24 06:01:34;;;;;;;;;10.20;7.80;;;;;19.90;100.00;100489.84;6198923;22;45209;-94
2022/06/24 06:27:17;;;;;;;;;8.80;8.80;;;;;19.43;100.00;100514.72;6264541;22;44918;-91
2022/06/24 06:29:43;;;;;;;;;8.80;7.80;;;;;19.39;100.00;100515.22;6251860;22;44837;-90
2022/06/24 07:15:28;;;;;;;;;6.20;6.20;;;;;21.00;100.00;100482.00;6330969;22;44903;-91
2022/06/24 07:21:17;;;;;;;;;7.60;6.00;;;;;21.36;100.00;100474.22;6329107;22;44730;-91
2022/06/24 07:27:07;;;;;;;;;8.20;5.40;;;;;21.54;100.00;100490.13;6323805;22;44883;-89
2022/06/24 07:29:37;;;;;;;;;3.00;3.00;;;;;21.76;100.00;100491.16;6295339;22;44678;-90
2022/06/24 07:32:08;;;;;;;;;4.00;4.00;;;;;22.02;100.00;100486.19;6327993;22;44630;-91
2022/06/24 07:34:35;;;;;;;;;5.20;5.20;;;;;22.18;100.00;100466.28;6305170;22;45299;-89
2022/06/24 07:37:02;;;;;;;;;6.40;4.60;;;;;22.73;100.00;100477.69;6333178;22;45104;-88
2022/06/24 07:47:19;;;;;;;;;6.40;5.40;;;;;23.58;100.00;100456.16;6288234;22;46094;-92
2022/06/24 08:11:15;;;;;;;;;4.80;3.80;;;;;24.25;100.00;100452.13;6231344;22;44715;-90
2022/06/24 08:13:40;;;;;;;;;5.00;5.00;;;;;24.02;100.00;100459.69;6196686;22;44673;-91
2022/06/24 08:16:06;;;;;;;;;6.25;4.50;;;;;23.60;100.00;100450.56;6197470;22;44986;-89
2022/06/24 08:18:31;;;;;;;;;5.00;4.00;;;;;23.60;100.00;100455.97;6197677;22;45066;-89
2022/06/24 08:20:57;;;;;;;;;6.00;6.00;;;;;23.76;100.00;100450.31;6226572;22;44641;-90
2022/06/24 08:23:23;;;;;;;;;8.25;4.75;;;;;23.83;100.00;100461.19;6233205;22;44652;-86
2022/06/24 08:28:25;;;;;;;;;6.00;6.00;;;;;23.43;100.00;100447.25;6262909;22;45558;-91
2022/06/24 08:30:58;;;;;;;;;6.40;6.40;;;;;23.50;100.00;100458.19;6269521;22;44592;-91
2022/06/24 08:35:59;;;;;;;;;5.20;4.60;;;;;23.58;100.00;100455.31;6275883;22;46093;-90
2022/06/24 08:38:24;;;;;;;;;6.60;5.00;;;;;23.76;100.00;100449.47;6267920;22;45151;-92
2022/06/24 08:40:58;;;;;;;;;6.25;5.00;;;;;23.77;100.00;100449.25;6265102;22;44542;-90
2022/06/24 08:43:49;;;;;;;;;13.20;10.00;;;;;23.90;100.00;100448.53;6297254;22;44600;-91
2022/06/24 08:48:58;;;;;;;;;6.20;5.00;;;;;24.21;100.00;100439.97;6237065;22;45131;-92
2022/06/24 08:51:26;;;;;;;;;7.40;4.60;;;;;24.16;100.00;100428.03;6238658;22;44785;-91
2022/06/24 08:54:02;;;;;;;;;6.40;5.00;;;;;24.03;100.00;100436.91;6185728;22;44651;-90
2022/06/24 08:56:28;;;;;;;;;3.40;3.40;;;;;23.91;100.00;100436.63;6266097;22;44822;-91
2022/06/24 08:58:54;;;;;;;;;4.60;3.40;;;;;23.97;100.00;100426.88;6262471;22;45071;-90
2022/06/24 09:01:20;;;;;;;;;4.00;3.00;;;;;23.89;100.00;100427.88;6234660;22;44583;-91
2022/06/24 09:03:47;;;;;;;;;2.80;2.00;;;;;23.37;100.00;100420.91;6231389;22;44595;-89
2022/06/24 09:06:14;;;;;;;;;3.00;3.00;;;;;22.87;100.00;100417.25;6226488;22;44808;-83
2022/06/24 09:08:44;;;;;;;;;2.00;2.00;;;;;23.25;100.00;100417.03;6247049;22;45231;-81
2022/06/24 09:11:11;;;;;;;;;3.00;3.00;;;;;23.61;100.00;100416.97;6254734;22;45298;-90
2022/06/24 09:14:07;;;;;;;;;2.80;2.20;;;;;23.88;100.00;100404.47;6232050;22;44718;-91
2022/06/24 09:16:35;;;;;;;;;2.80;2.80;;;;;23.53;100.00;100417.09;6235029;22;44840;-89
2022/06/24 09:19:03;;;;;;;;;3.40;2.40;;;;;23.43;100.00;100389.47;6268238;22;44977;-89
2022/06/24 09:21:43;;;;;;;;;3.00;3.00;;;;;23.84;100.00;100395.06;6253104;22;45929;-91
2022/06/24 09:24:09;;;;;;;;;3.40;3.40;;;;;24.31;100.00;100397.00;6329282;22;44599;-88
2022/06/24 09:26:40;;;;;;;;;2.40;2.40;;;;;24.51;100.00;100409.88;6312940;22;44876;-87
2022/06/24 09:29:09;;;;;;;;;5.80;3.20;;;;;24.58;100.00;100389.88;6312865;22;45198;-89
2022/06/24 09:31:36;;;;;;;;;0.40;0.40;;;;;24.77;100.00;100391.00;6288214;22;44761;-88
2022/06/24 09:34:17;;;;;;;;;3.20;2.00;;;;;24.95;100.00;100373.25;6317646;22;44673;-89
2022/06/24 09:36:45;;;;;;;;;1.20;1.00;;;;;24.85;100.00;100382.66;6284574;22;44952;-88
2022/06/24 09:39:24;;;;;;;;;3.00;1.20;;;;;25.05;100.00;100380.00;6282547;22;45619;-89
2022/06/24 09:41:55;;;;;;;;;1.00;1.00;;;;;25.38;100.00;100380.06;6293122;22;44583;-90
2022/06/24 09:44:24;;;;;;;;;3.00;3.00;;;;;25.54;100.00;100359.78;6299860;22;44727;-92
2022/06/24 09:47:04;;;;;;;;;1.40;1.40;;;;;25.57;100.00;100347.63;6273567;22;44890;-89
2022/06/24 09:49:29;;;;;;;;;1.80;1.80;;;;;25.67;100.00;100353.47;6273331;22;44992;-89
2022/06/24 09:51:56;;;;;;;;;1.00;1.00;;;;;25.85;100.00;100359.13;6283157;22;44737;-88
2022/06/24 09:54:22;;;;;;;;;0.60;0.60;;;;;25.89;100.00;100367.72;6312195;22;44744;-87
2022/06/24 09:56:47;;;;;;;;;0.00;0.00;;;;;25.83;100.00;100368.56;6310841;22;44807;-86
2022/06/24 10:02:00;;;;;;;;;1.00;1.00;;;;;24.48;100.00;100375.00;6311244;22;44763;-88
2022/06/24 10:04:28;;;;;;;;;3.60;3.60;;;;;23.90;100.00;100356.28;6314047;22;45297;-88
2022/06/24 10:06:57;;;;;;;;;1.40;1.40;;;;;24.14;100.00;100371.25;6317236;22;44783;-88
2022/06/24 10:09:25;;;;;;;;;1.20;1.00;;;;;24.59;100.00;100377.97;6260434;22;46625;-86
2022/06/24 10:11:53;;;;;;;;;1.00;1.00;;;;;24.50;100.00;100368.31;6317890;22;44572;-88
2022/06/24 10:14:19;;;;;;;;;1.00;1.00;;;;;24.54;100.00;100369.59;6293132;22;44588;-87
2022/06/24 10:16:48;;;;;;;;;4.00;2.60;;;;;24.36;100.00;100364.69;6332595;22;44773;-88
2022/06/24 10:19:16;;;;;;;;;2.60;1.00;;;;;24.43;100.00;100370.19;6326589;22;45563;-88
2022/06/24 10:21:42;;;;;;;;;4.00;2.00;;;;;24.43;100.00;100375.59;6331011;22;44644;-87
2022/06/24 10:24:13;;;;;;;;;2.50;1.00;;;;;24.28;100.00;100375.72;6331775;22;44615;-87
2022/06/24 10:26:41;;;;;;;;;2.00;2.00;;;;;24.23;100.00;100377.34;6304487;22;44849;-87
2022/06/24 10:29:06;;;;;;;;;1.00;1.00;;;;;24.67;100.00;100376.13;6319523;22;47782;-88
2022/06/24 10:31:54;;;;;;;;;1.00;1.00;;;;;24.94;100.00;100366.16;6284469;22;44565;-89
2022/06/24 10:34:22;;;;;;;;;1.00;1.00;;;;;25.35;100.00;100379.66;6283913;22;44771;-86
2022/06/24 10:36:51;;;;;;;;;2.00;1.00;;;;;25.52;100.00;100359.13;6283338;22;45260;-86
2022/06/24 10:39:19;;;;;;;;;1.00;1.00;;;;;25.84;100.00;100364.78;6312168;22;45026;-87
2022/06/24 10:41:45;;;;;;;;;1.00;1.00;;;;;26.06;100.00;100352.63;6315401;22;44746;-87
2022/06/24 10:44:23;;;;;;;;;1.00;1.00;;;;;25.98;100.00;100362.88;6312790;22;44708;-89
2022/06/24 10:47:04;;;;;;;;;1.00;1.00;;;;;25.55;100.00;100364.16;6310063;22;44728;-88
2022/06/24 10:49:54;;;;;;;;;2.00;2.00;;;;;25.53;100.00;100360.81;6310039;22;45147;-88
2022/06/24 10:52:36;;;;;;;;;1.00;1.00;;;;;25.54;100.00;100353.50;6308812;22;44594;-88
2022/06/24 10:55:17;;;;;;;;;2.80;1.80;;;;;25.61;100.00;100362.47;6308393;22;44651;-86
2022/06/24 10:58:13;;;;;;;;;2.40;2.00;;;;;25.33;100.00;100362.69;6312063;22;44804;-88
2022/06/24 11:00:39;;;;;;;;;1.00;1.00;;;;;25.28;100.00;100360.59;6215480;22;45204;-87
2022/06/24 11:03:07;;;;;;;;;1.00;1.00;;;;;25.18;100.00;100352.00;6216187;22;44784;-87
2022/06/24 11:05:37;;;;;;;;;1.00;1.00;;;;;25.08;100.00;100362.44;6216281;22;44753;-87
2022/06/24 11:08:15;;;;;;;;;1.00;1.00;;;;;24.54;100.00;100352.44;6193306;22;44898;-86
2022/06/24 11:10:51;;;;;;;;;0.00;0.00;;;;;24.41;100.00;100355.94;6218474;22;45438;-86
2022/06/24 11:13:17;;;;;;;;;1.40;1.40;;;;;24.56;100.00;100361.22;6219808;22;44675;-87
2022/06/24 11:15:47;;;;;;;;;2.00;2.00;;;;;24.70;100.00;100356.69;6198015;22;44831;-88
2022/06/24 11:18:22;;;;;;;;;2.80;1.00;;;;;25.08;100.00;100362.44;6220921;22;44803;-88
2022/06/24 11:20:54;;;;;;;;;0.40;0.40;;;;;25.06;100.00;100342.78;6216098;22;45226;-88
2022/06/24 11:23:22;;;;;;;;;1.20;1.20;;;;;24.94;100.00;100347.13;6215153;22;44588;-88
2022/06/24 11:25:50;;;;;;;;;2.20;1.40;;;;;24.76;100.00;100359.44;6188989;22;45224;-85
2022/06/24 11:28:26;;;;;;;;;1.40;1.40;;;;;24.89;100.00;100345.03;6189374;22;44906;-86
2022/06/24 11:30:53;;;;;;;;;1.40;1.00;;;;;25.24;100.00;100353.03;6214696;22;45066;-86
2022/06/24 11:33:20;;;;;;;;;1.20;1.20;;;;;25.27;100.00;100355.34;6214807;22;44695;-87
2022/06/24 11:35:47;;;;;;;;;1.20;1.20;;;;;25.20;100.00;100351.81;6218155;22;44685;-86
2022/06/24 11:38:13;;;;;;;;;1.60;1.60;;;;;25.60;100.00;100360.81;6321597;22;44713;-87
2022/06/24 11:40:40;;;;;;;;;1.00;1.00;;;;;25.84;100.00;100360.19;6322448;22;45207;-86
2022/06/24 11:43:09;;;;;;;;;4.00;1.00;;;;;26.12;100.00;100361.81;6318877;22;44650;-86
2022/06/24 11:45:39;;;;;;;;;1.00;1.00;;;;;26.23;100.00;100357.59;6313755;22;44702;-84
2022/06/24 11:48:06;;;;;;;;;2.00;1.00;;;;;26.11;100.00;100358.25;6319211;22;44667;-84
2022/06/24 11:50:33;;;;;;;;;1.00;1.00;;;;;26.50;100.00;100356.47;6288134;22;45078;-84
2022/06/24 11:52:59;;;;;;;;;1.00;1.00;;;;;26.64;100.00;100360.81;6319063;22;44759;-86
2022/06/24 11:55:29;;;;;;;;;2.60;2.00;;;;;26.84;100.00;100365.31;6288804;22;45241;-86
2022/06/24 11:57:56;;;;;;;;;2.60;1.00;;;;;26.86;100.00;100353.13;6320801;22;44828;-87
2022/06/24 12:00:24;;;;;;;;;1.00;1.00;;;;;26.99;100.00;100359.56;6289364;22;45493;-88
2022/06/24 12:02:51;;;;;;;;;0.60;0.60;;;;;26.76;100.00;100360.94;6318240;22;44705;-87
2022/06/24 12:05:18;;;;;;;;;0.40;0.40;;;;;26.09;100.00;100345.88;6312458;22;44667;-86
2022/06/24 12:07:45;;;;;;;;;1.00;1.00;;;;;25.98;100.00;100352.00;6308916;22;44797;-88
2022/06/24 12:10:12;;;;;;;;;0.60;0.60;;;;;26.13;100.00;100345.25;6309441;22;45099;-87
2022/06/24 12:12:55;;;;;;;;;1.00;1.00;;;;;26.25;100.00;100345.41;6281859;22;44734;-85
2022/06/24 12:15:22;;;;;;;;;0.80;0.80;;;;;26.09;100.00;100340.44;6311106;22;44656;-86
2022/06/24 12:17:53;;;;;;;;;0.20;0.20;;;;;26.47;100.00;100345.16;6312173;22;44848;-85
2022/06/24 12:20:26;;;;;;;;;1.00;1.00;;;;;26.60;100.00;100339.66;6317910;22;45172;-88
2022/06/24 12:23:15;;;;;;;;;0.00;0.00;;;;;26.28;96.62;100361.34;6262333;22;44698;-88
2022/06/24 12:25:43;;;;;;;;;1.00;1.00;;;;;25.75;99.99;100334.22;6320157;22;44719;-85
2022/06/24 12:28:19;;;;;;;;;1.80;1.80;;;;;25.67;100.00;100341.75;6320673;22;44634;-84
2022/06/24 12:31:03;;;;;;;;;0.20;0.20;;;;;25.81;100.00;100348.88;6284915;22;46274;-85
2022/06/24 12:33:31;;;;;;;;;1.00;1.00;;;;;25.41;100.00;100340.72;6310226;22;44708;-84
2022/06/24 12:36:13;;;;;;;;;1.00;1.00;;;;;25.65;100.00;100339.25;6310082;22;45107;-84
2022/06/24 12:38:58;;;;;;;;;1.40;1.00;;;;;26.13;100.00;100326.19;6311780;22;44751;-84
2022/06/24 12:41:24;;;;;;;;;0.00;0.00;;;;;26.76;97.50;100344.59;6308632;22;45356;-84
2022/06/24 12:44:03;;;;;;;;;1.20;1.00;;;;;26.37;96.49;100313.72;6308774;22;45202;-83
2022/06/24 12:46:31;;;;;;;;;1.00;1.00;;;;;26.96;97.17;100324.53;6308570;22;44660;-83
2022/06/24 12:51:46;;;;;;;;;3.20;2.00;;;;;27.65;92.60;100320.84;6308445;22;44962;-83
2022/06/24 12:54:13;;;;;;;;;1.00;1.00;;;;;27.74;93.17;100311.34;6307995;22;44807;-85
2022/06/24 12:56:40;;;;;;;;;1.00;1.00;;;;;28.15;92.34;100324.34;6309972;22;44638;-83
2022/06/24 12:59:05;;;;;;;;;3.00;1.00;;;;;28.30;91.89;100307.56;6308745;22;45297;-82
2022/06/24 13:01:39;;;;;;;;;2.00;2.00;;;;;27.89;92.85;100297.31;6315020;22;44927;-86
2022/06/24 13:04:04;;;;;;;;;1.80;1.80;;;;;27.41;96.34;100297.97;6321765;22;44697;-87
2022/06/24 13:06:30;;;;;;;;;1.00;1.00;;;;;27.09;100.00;100291.75;6313132;22;45077;-83
2022/06/24 13:08:55;;;;;;;;;2.50;2.00;;;;;26.90;100.00;100301.72;6309376;22;45404;-84
2022/06/24 13:11:21;;;;;;;;;1.75;1.75;;;;;27.40;96.27;100305.34;6280642;22;45537;-84
2022/06/24 13:13:46;;;;;;;;;1.00;1.00;;;;;27.77;93.53;100315.53;6309216;22;44775;-82
2022/06/24 13:16:12;;;;;;;;;1.25;1.25;;;;;27.35;90.17;100316.09;6309996;22;44749;-84
2022/06/24 13:18:37;;;;;;;;;2.00;2.00;;;;;26.91;93.44;100317.84;6311475;22;45230;-85
2022/06/24 13:21:03;;;;;;;;;1.00;1.00;;;;;26.21;100.00;100330.56;6281975;22;47030;-84
2022/06/24 13:23:28;;;;;;;;;0.75;0.75;;;;;25.81;100.00;100318.94;6308617;22;44824;-85
2022/06/24 13:25:54;;;;;;;;;1.50;1.50;;;;;25.53;100.00;100333.63;6308330;22;44678;-83
2022/06/24 13:28:19;;;;;;;;;1.25;1.25;;;;;25.56;100.00;100337.78;6311576;22;44680;-82
2022/06/24 13:30:46;;;;;;;;;1.25;1.25;;;;;25.22;100.00;100339.66;6301381;22;44885;-85
2022/06/24 13:33:12;;;;;;;;;1.00;1.00;;;;;25.11;100.00;100332.97;6302328;22;44711;-85